Santa Lucia — A8IP5 — position and weather

sailwx.info

Track history (hours):
 
Tides and Currents Weather Stations Pressure Air Temp Water Temp Dewpoint Dewpoint Depression Visibility Wind Speed Wind Dir Waves Ship Positions

Santa Lucia

Last reported at 2017-Jan-21 01:33 UTC. Time now 2017-Jan-22 05:51 UTC.
Position S 32°42' W 071°43'.

Length 143 m; beam 22 m.

Type: Cargo ship. MMSI: 636091017.

Date/timePositionNaut miles runAvg speedWind from/ knotsBaromVisibWave heightAir tempDewpointWater temp
2017-Jan-21 01:33S 32°42' W 071°43'1717.1
2017-Jan-21 00:34S 32°58' W 071°37'3 2.6
2017-Jan-20 23:34S 33°00' W 071°35'0 0.0
2017-Jan-20 22:33S 33°00' W 071°35'0 0.0
2017-Jan-20 21:33S 33°00' W 071°35'0 0.0
2017-Jan-20 20:33S 33°00' W 071°35'0 0.1
2017-Jan-20 19:33S 33°00' W 071°35'3 3.0
2017-Jan-20 18:33S 33°02' W 071°38'0 0.0
2017-Jan-20 17:28S 33°02' W 071°38'0 0.0
2017-Jan-20 16:33S 33°02' W 071°38'0 0.0
2017-Jan-20 15:33S 33°02' W 071°38'0 0.0
2017-Jan-20 14:30S 33°02' W 071°38'0 0.0
2017-Jan-20 13:28S 33°02' W 071°38'0 0.0
2017-Jan-20 12:27S 33°02' W 071°38'0 0.0
2017-Jan-20 11:31S 33°02' W 071°38'0 0.0
2017-Jan-20 10:31S 33°02' W 071°38'0 0.0
2017-Jan-20 06:15S 33°02' W 071°38'0 0.0
2017-Jan-19 23:33S 33°02' W 071°38'0 0.0
2017-Jan-19 22:33S 33°02' W 071°38'0 0.0
2017-Jan-19 21:25S 33°02' W 071°38'0 0.0
2017-Jan-19 20:06S 33°02' W 071°38'0 0.0
2017-Jan-19 19:32S 33°02' W 071°38'0 0.0
2017-Jan-19 18:06S 33°02' W 071°38'0 0.0
2017-Jan-19 17:13S 33°02' W 071°38'0 0.0
2017-Jan-19 16:23S 33°02' W 071°38'0 0.0
2017-Jan-19 15:33S 33°02' W 071°38'0 0.0
2017-Jan-19 13:18S 33°02' W 071°38'0 0.0
2017-Jan-19 12:31S 33°02' W 071°38'0 0.1
2017-Jan-19 11:32S 33°02' W 071°37'0 0.1
2017-Jan-19 10:28S 33°02' W 071°38'0 0.0
2017-Jan-18 23:29S 33°02' W 071°38'0 0.0
2017-Jan-18 22:32S 33°02' W 071°38'0 0.0
2017-Jan-18 21:32S 33°02' W 071°38'0 0.0
2017-Jan-18 20:33S 33°02' W 071°38'0 0.0
2017-Jan-18 19:29S 33°02' W 071°38'0 0.0
2017-Jan-18 18:27S 33°02' W 071°38'0 0.0
2017-Jan-18 17:29S 33°02' W 071°38'0 0.0
2017-Jan-18 16:28S 33°02' W 071°38'0 0.0
2017-Jan-18 15:31S 33°02' W 071°38'3 3.2
2017-Jan-18 14:33S 33°00' W 071°35'0 0.3
2017-Jan-18 13:33S 33°00' W 071°35'0 0.1
2017-Jan-18 12:33S 33°00' W 071°35'0 0.0
2017-Jan-18 11:31S 33°00' W 071°35'0 0.0
2017-Jan-18 10:33S 33°00' W 071°35'0 0.0
2017-Jan-18 09:33S 33°00' W 071°35'0 0.0
2017-Jan-18 08:33S 33°00' W 071°35'0 0.0
2017-Jan-18 07:26S 33°00' W 071°35'0 0.0
2017-Jan-18 06:26S 33°00' W 071°35'0 0.0
2017-Jan-18 05:26S 33°00' W 071°35'0 0.0
2017-Jan-18 04:32S 33°00' W 071°35'0 0.0
2017-Jan-18 03:31S 33°00' W 071°35'0 0.0
2017-Jan-18 02:04S 33°00' W 071°35'0 0.0
2017-Jan-18 01:33S 33°00' W 071°35'0 0.0
2017-Jan-18 00:20S 33°00' W 071°35'0 0.0
2017-Jan-17 23:33S 33°00' W 071°35'0 0.2
2017-Jan-17 22:32S 33°00' W 071°35'0 0.1
2017-Jan-17 21:33S 33°00' W 071°35'0 0.1
2017-Jan-17 20:31S 33°00' W 071°35'0 0.0
2017-Jan-17 19:32S 33°00' W 071°35'0 0.0
2017-Jan-17 18:32S 33°00' W 071°35'0 0.0
2017-Jan-17 17:32S 33°00' W 071°35'0 0.1
2017-Jan-17 16:33S 33°00' W 071°35'0 0.1
2017-Jan-17 15:33S 33°00' W 071°35'0 0.0
2017-Jan-17 14:31S 33°00' W 071°35'0 0.0
2017-Jan-17 13:33S 33°00' W 071°35'0 0.0
2017-Jan-17 12:33S 33°00' W 071°35'0 0.0
2017-Jan-17 11:30S 33°00' W 071°35'0 0.0
2017-Jan-17 10:31S 33°00' W 071°35'0 0.0
2017-Jan-17 09:31S 33°00' W 071°35'0 0.0
2017-Jan-17 08:31S 33°00' W 071°35'0 0.1
2017-Jan-17 07:33S 33°00' W 071°35'0 0.0
2017-Jan-17 06:24S 33°00' W 071°35'0 0.0
2017-Jan-17 05:31S 33°00' W 071°35'0 0.0
2017-Jan-17 04:28S 33°00' W 071°35'0 0.0
2017-Jan-17 03:29S 33°00' W 071°35'0 0.0
2017-Jan-17 02:33S 33°00' W 071°35'0 0.0
2017-Jan-17 01:30S 33°00' W 071°35'0 0.0
2017-Jan-17 00:31S 33°00' W 071°35'0 0.0
2017-Jan-16 23:33S 33°00' W 071°35'0 0.1
2017-Jan-16 22:31S 33°00' W 071°35'0 0.0
2017-Jan-16 21:33S 33°00' W 071°35'0 0.0
2017-Jan-16 20:31S 33°00' W 071°35'0 0.0
2017-Jan-16 19:31S 33°00' W 071°35'0 0.0
2017-Jan-16 18:32S 33°00' W 071°35'0 0.0
2017-Jan-16 17:31S 33°00' W 071°35'0 0.0
2017-Jan-16 16:33S 33°00' W 071°35'0 0.0
2017-Jan-16 15:26S 33°00' W 071°35'0 0.0
2017-Jan-16 14:30S 33°00' W 071°35'0 0.0
2017-Jan-16 13:33S 33°00' W 071°35'0 0.0
2017-Jan-16 12:34S 33°00' W 071°35'1 1.2
2017-Jan-16 11:33S 33°01' W 071°36'1312.7
2017-Jan-16 10:33S 32°49' W 071°41'  
Track history (hours):
 
Tides and Currents Weather Stations Pressure Air Temp Water Temp Dewpoint Dewpoint Depression Visibility Wind Speed Wind Dir Waves Ship Positions

Santa Lucia

Last reported at 2017-Jan-21 01:33 UTC. Time now 2017-Jan-22 05:51 UTC.
Position S 32°42' W 071°43'.

Length 143 m; beam 22 m.

Type: Cargo ship. MMSI: 636091017.

Date/timePositionNaut miles runAvg speedWind from/ knotsBaromVisibWave heightAir tempDewpointWater temp
2017-Jan-21 01:33S 32°42' W 071°43'1717.1
2017-Jan-21 00:34S 32°58' W 071°37'3 2.6
2017-Jan-20 23:34S 33°00' W 071°35'0 0.0
2017-Jan-20 22:33S 33°00' W 071°35'0 0.0
2017-Jan-20 21:33S 33°00' W 071°35'0 0.0
2017-Jan-20 20:33S 33°00' W 071°35'0 0.1
2017-Jan-20 19:33S 33°00' W 071°35'3 3.0
2017-Jan-20 18:33S 33°02' W 071°38'0 0.0
2017-Jan-20 17:28S 33°02' W 071°38'0 0.0
2017-Jan-20 16:33S 33°02' W 071°38'0 0.0
2017-Jan-20 15:33S 33°02' W 071°38'0 0.0
2017-Jan-20 14:30S 33°02' W 071°38'0 0.0
2017-Jan-20 13:28S 33°02' W 071°38'0 0.0
2017-Jan-20 12:27S 33°02' W 071°38'0 0.0
2017-Jan-20 11:31S 33°02' W 071°38'0 0.0
2017-Jan-20 10:31S 33°02' W 071°38'0 0.0
2017-Jan-20 06:15S 33°02' W 071°38'0 0.0
2017-Jan-19 23:33S 33°02' W 071°38'0 0.0
2017-Jan-19 22:33S 33°02' W 071°38'0 0.0
2017-Jan-19 21:25S 33°02' W 071°38'0 0.0
2017-Jan-19 20:06S 33°02' W 071°38'0 0.0
2017-Jan-19 19:32S 33°02' W 071°38'0 0.0
2017-Jan-19 18:06S 33°02' W 071°38'0 0.0
2017-Jan-19 17:13S 33°02' W 071°38'0 0.0
2017-Jan-19 16:23S 33°02' W 071°38'0 0.0
2017-Jan-19 15:33S 33°02' W 071°38'0 0.0
2017-Jan-19 13:18S 33°02' W 071°38'0 0.0
2017-Jan-19 12:31S 33°02' W 071°38'0 0.1
2017-Jan-19 11:32S 33°02' W 071°37'0 0.1
2017-Jan-19 10:28S 33°02' W 071°38'0 0.0
2017-Jan-18 23:29S 33°02' W 071°38'0 0.0
2017-Jan-18 22:32S 33°02' W 071°38'0 0.0
2017-Jan-18 21:32S 33°02' W 071°38'0 0.0
2017-Jan-18 20:33S 33°02' W 071°38'0 0.0
2017-Jan-18 19:29S 33°02' W 071°38'0 0.0
2017-Jan-18 18:27S 33°02' W 071°38'0 0.0
2017-Jan-18 17:29S 33°02' W 071°38'0 0.0
2017-Jan-18 16:28S 33°02' W 071°38'0 0.0
2017-Jan-18 15:31S 33°02' W 071°38'3 3.2
2017-Jan-18 14:33S 33°00' W 071°35'0 0.3
2017-Jan-18 13:33S 33°00' W 071°35'0 0.1
2017-Jan-18 12:33S 33°00' W 071°35'0 0.0
2017-Jan-18 11:31S 33°00' W 071°35'0 0.0
2017-Jan-18 10:33S 33°00' W 071°35'0 0.0
2017-Jan-18 09:33S 33°00' W 071°35'0 0.0
2017-Jan-18 08:33S 33°00' W 071°35'0 0.0
2017-Jan-18 07:26S 33°00' W 071°35'0 0.0
2017-Jan-18 06:26S 33°00' W 071°35'0 0.0
2017-Jan-18 05:26S 33°00' W 071°35'0 0.0
2017-Jan-18 04:32S 33°00' W 071°35'0 0.0
2017-Jan-18 03:31S 33°00' W 071°35'0 0.0
2017-Jan-18 02:04S 33°00' W 071°35'0 0.0
2017-Jan-18 01:33S 33°00' W 071°35'0 0.0
2017-Jan-18 00:20S 33°00' W 071°35'0 0.0
2017-Jan-17 23:33S 33°00' W 071°35'0 0.2
2017-Jan-17 22:32S 33°00' W 071°35'0 0.1
2017-Jan-17 21:33S 33°00' W 071°35'0 0.1
2017-Jan-17 20:31S 33°00' W 071°35'0 0.0
2017-Jan-17 19:32S 33°00' W 071°35'0 0.0
2017-Jan-17 18:32S 33°00' W 071°35'0 0.0
2017-Jan-17 17:32S 33°00' W 071°35'0 0.1
2017-Jan-17 16:33S 33°00' W 071°35'0 0.1
2017-Jan-17 15:33S 33°00' W 071°35'0 0.0
2017-Jan-17 14:31S 33°00' W 071°35'0 0.0
2017-Jan-17 13:33S 33°00' W 071°35'0 0.0
2017-Jan-17 12:33S 33°00' W 071°35'0 0.0
2017-Jan-17 11:30S 33°00' W 071°35'0 0.0
2017-Jan-17 10:31S 33°00' W 071°35'0 0.0
2017-Jan-17 09:31S 33°00' W 071°35'0 0.0
2017-Jan-17 08:31S 33°00' W 071°35'0 0.1
2017-Jan-17 07:33S 33°00' W 071°35'0 0.0
2017-Jan-17 06:24S 33°00' W 071°35'0 0.0
2017-Jan-17 05:31S 33°00' W 071°35'0 0.0
2017-Jan-17 04:28S 33°00' W 071°35'0 0.0
2017-Jan-17 03:29S 33°00' W 071°35'0 0.0
2017-Jan-17 02:33S 33°00' W 071°35'0 0.0
2017-Jan-17 01:30S 33°00' W 071°35'0 0.0
2017-Jan-17 00:31S 33°00' W 071°35'0 0.0
2017-Jan-16 23:33S 33°00' W 071°35'0 0.1
2017-Jan-16 22:31S 33°00' W 071°35'0 0.0
2017-Jan-16 21:33S 33°00' W 071°35'0 0.0
2017-Jan-16 20:31S 33°00' W 071°35'0 0.0
2017-Jan-16 19:31S 33°00' W 071°35'0 0.0
2017-Jan-16 18:32S 33°00' W 071°35'0 0.0
2017-Jan-16 17:31S 33°00' W 071°35'0 0.0
2017-Jan-16 16:33S 33°00' W 071°35'0 0.0
2017-Jan-16 15:26S 33°00' W 071°35'0 0.0
2017-Jan-16 14:30S 33°00' W 071°35'0 0.0
2017-Jan-16 13:33S 33°00' W 071°35'0 0.0
2017-Jan-16 12:34S 33°00' W 071°35'1 1.2
2017-Jan-16 11:33S 33°01' W 071°36'1312.7
2017-Jan-16 10:33S 32°49' W 071°41'  

Dump ship's entire track history